Time;durP1;ratioP1;P1;durP2;ratioP2;P2;SDS_P1;SDS_P2;PMS_P1;PMS_P2;Temp;Humidity;BMP_temperature;BMP_pressure;BME280_temperature;BME280_humidity;BME280_pressure;Samples;Min_cycle;Max_cycle;Signal;HPM_P1;HPM_P2
2023/03/14 00:01:20;;;;;;;1.05;0.50;;;9.00;99.90;;;8.48;100.00;95623.97;4984681;28;20045;-37
2023/03/14 00:03:46;;;;;;;0.43;0.30;;;9.00;99.90;;;8.44;100.00;95611.13;4980938;28;20516;-38
2023/03/14 00:06:14;;;;;;;0.65;0.57;;;9.00;99.90;;;8.44;100.00;95600.59;4985305;28;20053;-37
2023/03/14 00:08:41;;;;;;;0.40;0.38;;;9.00;99.90;;;8.41;100.00;95636.56;4985293;28;20057;-37
2023/03/14 00:11:13;;;;;;;1.25;0.50;;;9.00;99.90;;;8.40;100.00;95637.50;4985340;28;20429;-38
2023/03/14 00:13:39;;;;;;;0.60;0.35;;;8.90;99.90;;;8.44;100.00;95619.84;4978021;28;20030;-37
2023/03/14 00:16:08;;;;;;;0.63;0.50;;;8.90;99.90;;;8.39;100.00;95627.09;4989211;28;20034;-38
2023/03/14 00:18:34;;;;;;;0.75;0.40;;;8.90;99.90;;;8.38;100.00;95612.25;4985330;28;20401;-37
2023/03/14 00:21:01;;;;;;;0.70;0.60;;;8.90;99.90;;;8.38;100.00;95607.88;4976076;28;20125;-37
2023/03/14 00:23:29;;;;;;;2.13;0.40;;;8.90;99.90;;;8.36;100.00;95619.38;4980686;28;20026;-37
2023/03/14 00:26:07;;;;;;;1.13;0.50;;;8.90;99.90;;;8.33;100.00;95593.31;4985535;28;20044;-37
2023/03/14 00:28:33;;;;;;;4.00;0.50;;;8.90;99.90;;;8.31;100.00;95587.28;4986962;28;20088;-37
2023/03/14 00:31:01;;;;;;;0.40;0.40;;;8.80;99.90;;;8.29;100.00;95594.41;4982600;28;20057;-38
2023/03/14 00:33:27;;;;;;;1.23;0.43;;;8.80;99.90;;;8.25;100.00;95609.47;4985036;28;20034;-38
2023/03/14 00:36:08;;;;;;;1.52;0.47;;;8.80;99.90;;;8.26;100.00;95610.34;4980781;28;20038;-37
2023/03/14 00:38:34;;;;;;;0.45;0.38;;;8.80;99.90;;;8.25;100.00;95611.25;4989185;28;20045;-37
2023/03/14 00:41:05;;;;;;;2.20;0.43;;;8.80;99.90;;;8.22;100.00;95617.56;4988137;28;20022;-37
2023/03/14 00:43:31;;;;;;;0.70;0.50;;;8.80;99.90;;;8.23;100.00;95614.81;4988065;28;20033;-37
2023/03/14 00:45:57;;;;;;;1.20;0.40;;;8.70;99.90;;;8.20;100.00;95609.75;4980604;28;20034;-37
2023/03/14 00:48:22;;;;;;;1.13;0.70;;;8.80;99.90;;;8.17;100.00;95601.19;4983875;28;20034;-37
2023/03/14 00:50:48;;;;;;;0.63;0.40;;;8.70;99.90;;;8.17;100.00;95602.03;4987723;28;20096;-37
2023/03/14 00:53:15;;;;;;;0.77;0.40;;;8.70;99.90;;;8.18;100.00;95601.13;4979464;28;20486;-37
2023/03/14 00:55:42;;;;;;;0.57;0.43;;;8.70;99.90;;;7.97;100.00;95586.56;4983944;28;20465;-37
2023/03/14 00:58:10;;;;;;;1.60;0.50;;;8.70;99.90;;;8.17;100.00;95617.78;4981847;28;20034;-37
2023/03/14 01:00:36;;;;;;;2.22;0.38;;;8.70;99.90;;;8.14;100.00;95619.75;4985673;28;20037;-38
2023/03/14 01:03:02;;;;;;;0.60;0.45;;;8.70;99.90;;;8.15;100.00;95617.03;4988968;28;20022;-38
2023/03/14 01:05:28;;;;;;;0.88;0.32;;;8.70;99.90;;;8.18;100.00;95629.13;4985382;28;21405;-38
2023/03/14 01:07:54;;;;;;;1.10;0.43;;;8.70;99.90;;;8.19;100.00;95643.97;4980213;28;20057;-37
2023/03/14 01:10:20;;;;;;;0.77;0.45;;;8.70;99.90;;;8.22;100.00;95646.44;4988333;28;20420;-37
2023/03/14 01:12:46;;;;;;;2.05;0.60;;;8.80;99.90;;;8.27;100.00;95649.63;4983607;28;20037;-37
2023/03/14 01:15:12;;;;;;;0.43;0.40;;;8.80;99.90;;;8.32;100.00;95654.63;4982235;28;20041;-37
2023/03/14 01:17:39;;;;;;;0.40;0.40;;;8.90;99.90;;;8.38;100.00;95649.03;4986823;28;20084;-38
2023/03/14 01:20:10;;;;;;;0.85;0.50;;;8.90;99.90;;;8.34;100.00;95626.50;4984982;28;20033;-38
2023/03/14 01:22:39;;;;;;;0.97;0.33;;;8.90;99.90;;;8.40;100.00;95627.00;4985339;28;20481;-37
2023/03/14 01:25:07;;;;;;;1.38;0.40;;;8.90;99.90;;;8.33;100.00;95614.31;4985041;28;20281;-38
2023/03/14 01:27:33;;;;;;;0.90;0.40;;;8.90;99.90;;;8.47;100.00;95605.66;4979755;28;20034;-37
2023/03/14 01:29:59;;;;;;;1.17;0.40;;;9.00;99.90;;;8.48;100.00;95591.59;4982554;28;20041;-38
2023/03/14 01:32:25;;;;;;;0.65;0.40;;;9.00;99.90;;;8.45;100.00;95586.53;4983576;28;20092;-37
2023/03/14 01:34:51;;;;;;;0.63;0.40;;;9.00;99.90;;;8.41;100.00;95583.19;4984409;28;20183;-38
2023/03/14 01:37:17;;;;;;;0.38;0.30;;;9.00;99.90;;;8.45;100.00;95590.00;4980619;28;20041;-38
2023/03/14 01:39:43;;;;;;;0.85;0.52;;;9.00;99.90;;;8.40;100.00;95584.16;4985989;28;20208;-38
2023/03/14 01:42:08;;;;;;;0.45;0.40;;;8.90;99.90;;;8.36;100.00;95562.47;4980948;28;20050;-38
2023/03/14 01:44:55;;;;;;;0.98;0.28;;;8.90;99.90;;;8.30;100.00;95551.47;4982109;28;20485;-38
2023/03/14 01:47:21;;;;;;;0.35;0.35;;;8.80;99.90;;;8.25;100.00;95550.88;5008899;22;20107;-37
2023/03/14 01:50:06;;;;;;;1.50;0.50;;;8.80;99.90;;;8.18;100.00;95530.22;5006511;28;20041;-37
2023/03/14 01:52:48;;;;;;;2.05;0.38;;;8.80;99.90;;;8.13;100.00;95534.88;5005089;28;20291;-37
2023/03/14 01:55:23;;;;;;;0.55;0.50;;;8.70;99.90;;;8.10;100.00;95542.09;5001442;28;20285;-37
2023/03/14 01:57:54;;;;;;;0.95;0.30;;;8.70;99.90;;;8.14;100.00;95546.22;5003611;28;20052;-37
2023/03/14 02:00:22;;;;;;;1.25;0.40;;;8.70;99.90;;;8.12;100.00;95541.06;5004913;28;20445;-37
2023/03/14 02:02:53;;;;;;;0.20;0.20;;;8.70;99.90;;;8.15;100.00;95546.16;4999740;28;20029;-37
2023/03/14 02:05:25;;;;;;;2.65;0.50;;;8.70;99.90;;;8.14;100.00;95546.22;5001515;28;20052;-37
2023/03/14 02:07:57;;;;;;;0.77;0.30;;;8.70;99.90;;;8.15;100.00;95542.69;5002774;28;20033;-37
2023/03/14 02:10:28;;;;;;;0.50;0.50;;;8.70;99.90;;;8.10;100.00;95540.31;5007982;28;20473;-37
2023/03/14 02:12:56;;;;;;;0.68;0.40;;;8.70;99.90;;;8.14;100.00;95547.06;4998765;28;20614;-37
2023/03/14 02:15:23;;;;;;;1.75;0.50;;;8.70;99.90;;;8.10;100.00;95552.59;4996897;28;20034;-37
2023/03/14 02:17:49;;;;;;;0.70;0.50;;;8.60;99.90;;;7.99;100.00;95538.28;5005769;28;20057;-37
2023/03/14 02:20:22;;;;;;;0.50;0.30;;;8.60;99.90;;;7.95;100.00;95535.91;5012461;28;20108;-37
2023/03/14 02:22:48;;;;;;;0.70;0.40;;;8.50;99.90;;;7.95;100.00;95539.41;5002120;28;20037;-37
2023/03/14 02:25:55;;;;;;;0.65;0.40;;;8.50;99.90;;;7.97;100.00;95531.44;5001064;28;20040;-37
2023/03/14 02:28:21;;;;;;;0.88;0.38;;;8.50;99.90;;;7.98;100.00;95520.00;5006791;28;20038;-37
2023/03/14 02:30:47;;;;;;;2.00;0.30;;;8.50;99.90;;;7.90;100.00;95498.59;5013983;28;20024;-37
2023/03/14 02:33:17;;;;;;;0.20;0.20;;;8.50;99.90;;;7.94;100.00;95497.50;5001510;28;20036;-37
2023/03/14 02:36:05;;;;;;;2.40;0.40;;;8.50;99.90;;;7.95;100.00;95504.41;4998647;28;20025;-37
2023/03/14 02:38:50;;;;;;;0.77;0.43;;;8.50;99.90;;;7.88;100.00;95485.56;4999800;28;20048;-37
2023/03/14 02:41:16;;;;;;;1.20;0.40;;;8.50;99.90;;;7.95;100.00;95499.16;4998065;28;20037;-37
2023/03/14 02:43:42;;;;;;;0.40;0.20;;;8.50;99.90;;;7.80;100.00;95472.84;5002439;28;20048;-37
2023/03/14 02:46:13;;;;;;;1.27;0.45;;;8.50;99.90;;;7.95;100.00;95494.78;4996734;28;20037;-37
2023/03/14 02:48:51;;;;;;;0.45;0.30;;;8.50;99.90;;;7.96;100.00;95469.38;4999375;28;20099;-37
2023/03/14 02:51:17;;;;;;;0.90;0.38;;;8.50;99.90;;;7.90;100.00;95469.75;5003134;28;20021;-37
2023/03/14 02:53:43;;;;;;;1.50;0.40;;;8.50;99.90;;;7.95;100.00;95483.41;4994115;28;20127;-36
2023/03/14 02:56:10;;;;;;;3.55;0.50;;;8.50;99.90;;;7.93;100.00;95446.78;4993171;28;20045;-37
2023/03/14 02:58:36;;;;;;;1.77;0.70;;;8.50;99.90;;;7.94;100.00;95464.22;4997786;28;20478;-37
2023/03/14 03:01:02;;;;;;;0.88;0.45;;;8.50;99.90;;;7.94;100.00;95466.00;4995137;28;20033;-37
2023/03/14 03:03:28;;;;;;;2.13;0.40;;;8.50;99.90;;;7.89;100.00;95440.00;4993497;28;20037;-37
2023/03/14 03:05:55;;;;;;;1.30;0.40;;;8.50;99.90;;;7.87;100.00;95439.25;4993900;28;20056;-37
2023/03/14 03:08:24;;;;;;;2.85;0.50;;;8.50;99.90;;;7.87;100.00;95434.00;4998811;28;20029;-37
2023/03/14 03:10:50;;;;;;;0.50;0.40;;;8.50;99.90;;;7.88;100.00;95433.09;4993432;28;20633;-37
2023/03/14 03:13:16;;;;;;;1.70;0.43;;;8.50;99.90;;;7.91;100.00;95425.00;4997897;28;20136;-37
2023/03/14 03:15:43;;;;;;;0.60;0.40;;;8.40;99.90;;;7.73;100.00;95387.56;4998617;28;20083;-37
2023/03/14 03:18:08;;;;;;;2.58;0.57;;;8.50;99.90;;;7.89;100.00;95400.63;4995199;28;20135;-37
2023/03/14 03:20:34;;;;;;;2.05;0.70;;;8.40;99.90;;;7.93;100.00;95406.56;4993431;28;20131;-37
2023/03/14 03:23:00;;;;;;;1.95;0.50;;;8.40;99.90;;;7.87;100.00;95391.19;4997546;28;20057;-37
2023/03/14 03:25:27;;;;;;;2.20;0.60;;;8.40;99.90;;;7.86;100.00;95405.22;4998503;28;20068;-37
2023/03/14 03:27:53;;;;;;;1.52;0.55;;;8.40;99.90;;;7.98;100.00;95409.75;4997164;28;20327;-36
2023/03/14 03:30:19;;;;;;;2.53;0.60;;;8.50;99.90;;;7.89;100.00;95411.13;5009605;28;20473;-36
2023/03/14 03:32:44;;;;;;;0.98;0.40;;;8.40;99.90;;;7.90;100.00;95404.13;5004050;28;20033;-37
2023/03/14 03:35:10;;;;;;;1.27;0.50;;;8.40;99.90;;;7.93;100.00;95396.06;5004888;28;20033;-36
2023/03/14 03:37:36;;;;;;;1.42;0.57;;;8.50;99.90;;;7.91;100.00;95392.69;5004554;28;20037;-37
2023/03/14 03:40:05;;;;;;;1.30;0.52;;;8.50;99.90;;;7.97;100.00;95398.44;5008348;28;20127;-37
2023/03/14 03:42:32;;;;;;;0.73;0.40;;;8.50;99.90;;;7.86;100.00;95395.59;5002135;28;20084;-36
2023/03/14 03:44:59;;;;;;;3.40;0.50;;;8.40;99.90;;;7.80;100.00;95386.28;5008588;28;20819;-37
2023/03/14 03:47:25;;;;;;;4.03;0.80;;;8.40;99.90;;;7.73;100.00;95387.56;5005454;28;20045;-36
2023/03/14 03:49:50;;;;;;;1.23;0.60;;;8.40;99.90;;;7.71;100.00;95389.44;5002445;28;20073;-36
2023/03/14 03:52:16;;;;;;;2.30;0.70;;;8.30;99.90;;;7.67;100.00;95387.94;5008406;28;20026;-37
2023/03/14 03:54:42;;;;;;;1.70;0.50;;;8.30;99.90;;;7.65;100.00;95376.69;5004742;28;20049;-37
2023/03/14 03:57:08;;;;;;;1.88;0.70;;;8.30;99.90;;;7.68;100.00;95381.75;5013054;28;20265;-37
2023/03/14 03:59:33;;;;;;;2.92;0.70;;;8.20;99.90;;;7.69;100.00;95387.84;5005166;28;20073;-37
2023/03/14 04:01:59;;;;;;;3.20;0.85;;;8.30;99.90;;;7.59;100.00;95387.50;5005784;28;20147;-37
2023/03/14 04:04:25;;;;;;;4.90;0.70;;;8.20;99.90;;;7.63;100.00;95384.63;5007753;28;20037;-36
2023/03/14 04:06:51;;;;;;;1.80;0.60;;;8.10;99.90;;;7.58;100.00;95389.28;5006681;28;20067;-37
2023/03/14 04:09:16;;;;;;;1.55;0.70;;;8.20;99.90;;;7.32;100.00;95338.34;5010739;28;20246;-37
2023/03/14 04:11:42;;;;;;;2.30;0.80;;;8.10;99.90;;;7.51;100.00;95369.59;5007303;28;20473;-37
2023/03/14 04:14:08;;;;;;;7.07;0.90;;;8.10;99.90;;;7.51;100.00;95376.63;5010528;28;20025;-37
2023/03/14 04:16:34;;;;;;;1.58;0.57;;;8.10;99.90;;;7.54;100.00;95376.47;5007162;28;20073;-37
2023/03/14 04:19:01;;;;;;;6.25;0.82;;;8.10;99.90;;;7.48;100.00;95382.03;5010483;28;20034;-37
2023/03/14 04:21:27;;;;;;;2.28;0.63;;;8.10;99.90;;;7.49;100.00;95386.38;5011397;28;20936;-37
2023/03/14 04:23:52;;;;;;;1.33;0.68;;;8.10;99.90;;;7.49;100.00;95383.75;5006279;28;20289;-37
2023/03/14 04:26:18;;;;;;;5.93;1.05;;;8.10;99.90;;;7.24;100.00;95346.63;5007943;28;20116;-37
2023/03/14 04:28:44;;;;;;;6.15;1.05;;;8.00;99.90;;;7.41;100.00;95379.78;4998826;28;20772;-36
2023/03/14 04:31:17;;;;;;;10.35;1.60;;;8.00;99.90;;;7.37;100.00;95373.00;5005401;28;20044;-37
2023/03/14 04:33:42;;;;;;;4.25;0.90;;;8.00;99.90;;;7.37;100.00;95372.16;5002509;28;20025;-37
2023/03/14 04:36:09;;;;;;;2.42;0.77;;;8.00;99.90;;;7.39;100.00;95368.53;5003102;28;20044;-37
2023/03/14 04:38:35;;;;;;;3.67;0.70;;;7.90;99.90;;;7.43;100.00;95361.34;5008711;28;20509;-36
2023/03/14 04:41:02;;;;;;;2.90;0.90;;;8.00;99.90;;;7.48;100.00;95364.50;5007280;28;20083;-37
2023/03/14 04:43:28;;;;;;;1.95;0.70;;;8.00;99.90;;;7.37;100.00;95357.25;5008931;28;20547;-37
2023/03/14 04:45:55;;;;;;;4.38;0.90;;;8.10;99.90;;;7.43;100.00;95361.34;5009190;28;20048;-38
2023/03/14 04:48:21;;;;;;;3.00;0.80;;;8.00;99.90;;;7.39;100.00;95370.28;5010115;28;20111;-37
2023/03/14 04:50:47;;;;;;;3.90;0.73;;;8.00;99.90;;;7.38;100.00;95352.88;5006757;28;20030;-37
2023/03/14 04:53:14;;;;;;;3.45;1.00;;;8.00;99.90;;;7.34;100.00;95346.97;5002557;28;20095;-36
2023/03/14 04:55:39;;;;;;;2.58;0.70;;;7.90;99.90;;;7.25;100.00;95337.00;5007781;28;20025;-37
2023/03/14 04:58:05;;;;;;;5.00;0.98;;;7.90;99.90;;;7.27;100.00;95345.63;5006126;28;20623;-36
2023/03/14 05:00:31;;;;;;;2.03;1.05;;;7.90;99.90;;;7.23;100.00;95344.97;5002542;28;20041;-37
2023/03/14 05:02:57;;;;;;;3.05;0.77;;;7.80;99.90;;;7.17;100.00;95340.03;5004209;28;20315;-36
2023/03/14 05:05:23;;;;;;;3.38;0.60;;;7.80;99.90;;;7.14;100.00;95339.38;5005513;28;20060;-37
2023/03/14 05:07:48;;;;;;;5.93;1.08;;;7.70;99.90;;;7.15;100.00;95347.16;5004111;28;20458;-37
2023/03/14 05:10:14;;;;;;;2.20;0.70;;;7.70;99.90;;;7.09;100.00;95331.78;5000376;28;20088;-37
2023/03/14 05:12:40;;;;;;;2.80;0.70;;;7.70;99.90;;;7.07;100.00;95328.41;4996178;28;20319;-37
2023/03/14 05:15:07;;;;;;;4.50;0.63;;;7.70;99.90;;;7.05;100.00;95325.88;5003396;28;20037;-37
2023/03/14 05:17:33;;;;;;;2.83;0.50;;;7.60;99.90;;;7.06;100.00;95327.53;4989590;28;20037;-37
2023/03/14 05:19:59;;;;;;;5.85;0.82;;;7.70;99.90;;;6.99;100.00;95333.22;5002487;28;20036;-37
2023/03/14 05:22:25;;;;;;;3.78;0.90;;;7.60;99.90;;;7.04;100.00;95339.06;5002379;28;20029;-36
2023/03/14 05:24:51;;;;;;;1.23;0.60;;;7.60;99.90;;;7.00;100.00;95333.13;5007936;28;20095;-37
2023/03/14 05:27:16;;;;;;;2.88;0.80;;;7.60;99.90;;;7.00;100.00;95324.41;5007922;28;20631;-37
2023/03/14 05:29:42;;;;;;;5.00;1.13;;;7.60;99.90;;;6.93;100.00;95325.69;5003785;28;20033;-37
2023/03/14 05:32:08;;;;;;;5.82;1.08;;;7.60;99.90;;;6.90;100.00;95326.72;5005154;28;20034;-37
2023/03/14 05:34:33;;;;;;;3.70;0.75;;;7.50;99.90;;;6.84;100.00;95333.13;5001563;28;20033;-37
2023/03/14 05:36:59;;;;;;;2.92;0.90;;;7.50;99.90;;;6.71;100.00;95294.59;4995362;28;20143;-36
2023/03/14 05:39:25;;;;;;;2.25;0.60;;;7.40;99.90;;;6.76;100.00;95318.78;4995191;28;20381;-37
2023/03/14 05:41:50;;;;;;;5.50;0.60;;;7.40;99.90;;;6.80;100.00;95305.44;4997140;28;20595;-37
2023/03/14 05:44:16;;;;;;;2.03;0.63;;;7.40;99.90;;;6.77;100.00;95307.38;4995096;28;20182;-37
2023/03/14 05:49:11;;;;;;;1.48;0.60;;;7.30;99.90;;;6.72;100.00;95301.53;4980740;28;20356;-36
2023/03/14 05:51:37;;;;;;;2.97;0.73;;;7.30;99.90;;;6.75;100.00;95311.81;4981606;28;20029;-37
2023/03/14 05:54:03;;;;;;;3.05;0.73;;;7.30;99.90;;;6.77;100.00;95307.38;4983500;28;20088;-36
2023/03/14 05:56:28;;;;;;;3.85;0.70;;;7.40;99.90;;;6.79;100.00;95303.72;4982112;28;20034;-36
2023/03/14 05:58:54;;;;;;;1.63;0.55;;;7.40;99.90;;;6.82;100.00;95315.78;4982972;28;20309;-36
2023/03/14 06:01:20;;;;;;;3.40;0.80;;;7.40;99.90;;;6.89;100.00;95309.28;4976439;28;20030;-36
2023/03/14 06:03:46;;;;;;;2.80;0.70;;;7.50;99.90;;;6.77;100.00;95278.56;4976979;28;20346;-36
2023/03/14 06:06:11;;;;;;;1.65;0.55;;;7.60;99.90;;;7.06;100.00;95318.84;4988189;28;20449;-36
2023/03/14 06:08:37;;;;;;;3.53;0.77;;;7.60;99.90;;;7.03;100.00;95301.53;4989735;28;20030;-36
2023/03/14 06:11:03;;;;;;;3.78;0.60;;;7.60;99.90;;;7.08;100.00;95316.97;4987727;28;20029;-36
2023/03/14 06:13:29;;;;;;;3.20;0.75;;;7.70;99.90;;;7.08;100.00;95315.19;4978698;28;20029;-36
2023/03/14 06:15:55;;;;;;;2.10;0.73;;;7.70;99.90;;;7.12;100.00;95320.25;4982056;28;20488;-36
2023/03/14 06:18:20;;;;;;;1.33;0.57;;;7.70;99.90;;;7.19;100.00;95316.38;4983174;28;20048;-36
2023/03/14 06:20:46;;;;;;;6.32;0.70;;;7.70;99.90;;;7.21;100.00;95327.59;4978032;28;20121;-37
2023/03/14 06:23:12;;;;;;;4.28;1.02;;;7.80;99.90;;;7.18;100.00;95325.19;4973972;28;20038;-36
2023/03/14 06:25:38;;;;;;;3.92;0.85;;;7.80;99.90;;;7.01;100.00;95294.66;4977876;28;20033;-36
2023/03/14 06:28:03;;;;;;;1.63;0.63;;;7.70;99.90;;;7.13;100.00;95325.44;4975944;28;20073;-37
2023/03/14 06:30:29;;;;;;;2.10;0.70;;;7.70;99.90;;;7.09;100.00;95326.53;4980184;28;20442;-36
2023/03/14 06:32:58;;;;;;;1.73;0.55;;;7.70;99.90;;;7.03;100.00;95329.50;4987654;28;20034;-36
2023/03/14 06:35:23;;;;;;;3.13;0.70;;;7.60;99.90;;;7.01;100.00;95310.38;4981287;28;20040;-36
2023/03/14 06:37:49;;;;;;;1.77;0.82;;;7.70;99.90;;;6.72;100.00;95260.47;4987273;28;20366;-37
2023/03/14 06:40:17;;;;;;;2.47;0.63;;;7.70;99.90;;;7.25;100.00;95313.41;4986434;28;20502;-36
2023/03/14 06:42:44;;;;;;;2.92;0.90;;;7.80;99.90;;;7.33;100.00;95310.34;4992385;28;20192;-36
2023/03/14 06:45:10;;;;;;;2.85;0.90;;;7.90;99.90;;;7.37;100.00;95306.59;4993203;28;20510;-36
2023/03/14 06:47:37;;;;;;;4.05;0.63;;;7.90;99.90;;;7.39;100.00;95309.97;4990639;28;20397;-36
2023/03/14 06:50:07;;;;;;;2.80;0.63;;;7.90;99.90;;;7.38;100.00;95303.06;4986904;28;20531;-36
2023/03/14 06:52:33;;;;;;;3.78;0.90;;;7.90;99.90;;;7.34;100.00;95305.00;4986719;28;20317;-36
2023/03/14 06:54:59;;;;;;;2.75;0.80;;;8.00;99.90;;;7.48;100.00;95303.34;4989020;28;20125;-36
2023/03/14 06:57:24;;;;;;;2.58;0.52;;;8.10;99.90;;;7.36;100.00;95283.97;4983982;28;20176;-36
2023/03/14 06:59:50;;;;;;;2.38;0.70;;;8.10;99.90;;;7.72;100.00;95308.97;4991105;28;20033;-36
2023/03/14 07:02:16;;;;;;;2.40;0.68;;;8.30;99.90;;;7.93;100.00;95317.31;4991581;28;20037;-36
2023/03/14 07:04:42;;;;;;;2.15;0.55;;;8.60;99.90;;;8.20;100.00;95317.44;4989868;28;20520;-36
2023/03/14 07:07:07;;;;;;;3.78;0.60;;;8.80;99.90;;;8.35;100.00;95324.38;4990433;28;20038;-36
2023/03/14 07:09:34;;;;;;;2.60;0.88;;;8.90;99.90;;;8.39;100.00;95322.41;4992216;28;20445;-36
2023/03/14 07:12:00;;;;;;;1.27;0.30;;;8.90;99.90;;;8.40;100.00;95321.50;4993862;28;20116;-36
2023/03/14 07:14:26;;;;;;;1.98;0.60;;;9.00;99.90;;;8.38;100.00;95328.59;4992549;28;20038;-36
2023/03/14 07:16:52;;;;;;;0.75;0.50;;;8.90;99.90;;;8.36;100.00;95326.09;4989911;28;20453;-36
2023/03/14 07:19:18;;;;;;;4.32;1.00;;;9.00;99.90;;;8.37;100.00;95322.50;4991608;28;20029;-36
2023/03/14 07:21:43;;;;;;;2.10;0.68;;;9.00;99.90;;;8.54;100.00;95328.53;4993550;28;20055;-36
2023/03/14 07:24:09;;;;;;;2.88;0.60;;;9.10;99.90;;;8.47;100.00;95296.56;4989540;28;20038;-36
2023/03/14 07:26:35;;;;;;;2.33;0.60;;;9.30;99.90;;;8.83;100.00;95333.75;4989405;28;20026;-36
2023/03/14 07:29:03;;;;;;;5.20;1.67;;;9.40;99.90;;;9.06;100.00;95335.78;4988038;28;20374;-36
2023/03/14 07:31:29;;;;;;;2.67;0.68;;;9.60;99.90;;;9.22;100.00;95333.00;4990888;28;20030;-36
2023/03/14 07:33:55;;;;;;;2.60;0.40;;;9.80;99.90;;;9.34;100.00;95341.91;4989169;28;20081;-36
2023/03/14 07:36:21;;;;;;;3.03;0.52;;;9.90;99.90;;;9.46;100.00;95337.63;4994510;28;20041;-36
2023/03/14 07:38:47;;;;;;;1.67;0.60;;;10.00;99.90;;;9.58;100.00;95341.22;4993422;28;20064;-36
2023/03/14 07:41:13;;;;;;;1.40;0.47;;;10.20;99.90;;;9.70;100.00;95343.88;4994651;28;20124;-36
2023/03/14 07:43:39;;;;;;;1.17;0.50;;;10.30;99.90;;;9.71;100.00;95342.13;4993309;28;20063;-37
2023/03/14 07:46:05;;;;;;;2.25;0.47;;;10.40;99.90;;;9.76;100.00;95334.75;4994327;28;20274;-36
2023/03/14 07:48:31;;;;;;;2.13;0.57;;;10.40;99.90;;;9.89;100.00;95338.25;5039883;22;20211;-55
2023/03/14 07:50:56;;;;;;;1.63;0.60;;;10.50;99.90;;;9.97;100.00;95342.16;5052265;28;20684;-55
2023/03/14 07:53:24;;;;;;;1.05;0.50;;;10.50;99.90;;;9.97;100.00;95355.31;5055592;28;20037;-54
2023/03/14 07:55:54;;;;;;;2.13;0.47;;;10.60;99.90;;;9.98;100.00;95343.81;5050642;28;20025;-54
2023/03/14 07:58:24;;;;;;;1.25;0.55;;;10.50;99.90;;;10.01;100.00;95339.19;5055918;28;20028;-55
2023/03/14 08:00:51;;;;;;;2.80;1.10;;;10.60;99.90;;;9.93;100.00;95338.88;5054447;28;20165;-54
2023/03/14 08:03:17;;;;;;;1.08;0.30;;;10.60;99.90;;;9.97;100.00;95340.34;5056177;28;20033;-53
2023/03/14 08:05:43;;;;;;;0.88;0.50;;;10.60;99.90;;;9.99;100.00;95338.47;5054492;28;20029;-54
2023/03/14 08:08:09;;;;;;;0.70;0.22;;;10.60;99.90;;;9.98;100.00;95333.28;5058259;28;20507;-55
2023/03/14 08:10:34;;;;;;;0.32;0.20;;;10.60;99.90;;;10.03;100.00;95333.84;5056375;28;20519;-54
2023/03/14 08:13:01;;;;;;;1.05;0.25;;;10.60;99.90;;;10.16;100.00;95325.94;5058306;28;20032;-54
2023/03/14 08:15:29;;;;;;;2.95;0.30;;;10.80;99.90;;;10.22;100.00;95341.34;5056228;28;20098;-53
2023/03/14 08:17:55;;;;;;;2.75;0.40;;;10.80;99.90;;;10.26;100.00;95345.44;5054445;28;20120;-55
2023/03/14 08:20:25;;;;;;;3.33;0.63;;;10.80;99.90;;;10.39;100.00;95341.06;5053219;28;20450;-53
2023/03/14 08:22:51;;;;;;;0.77;0.25;;;11.00;99.90;;;10.54;100.00;95330.41;5057262;28;20047;-54
2023/03/14 08:25:17;;;;;;;1.27;0.40;;;11.10;99.90;;;10.68;100.00;95328.47;5052995;28;20037;-53
2023/03/14 08:27:43;;;;;;;2.15;0.50;;;11.30;99.90;;;10.96;100.00;95334.41;5051193;28;20037;-54
2023/03/14 08:30:15;;;;;;;1.35;0.35;;;11.50;99.90;;;11.12;100.00;95328.06;5058911;28;20108;-54
2023/03/14 08:32:41;;;;;;;0.93;0.43;;;11.70;99.90;;;11.20;100.00;95328.34;5049985;28;20261;-53
2023/03/14 08:35:08;;;;;;;1.52;0.40;;;11.80;99.90;;;11.20;97.55;95313.38;5053884;28;20849;-54
2023/03/14 08:37:35;;;;;;;0.57;0.30;;;11.80;99.90;;;11.20;98.77;95323.09;5054105;28;20025;-55
2023/03/14 08:40:01;;;;;;;1.92;0.45;;;11.80;99.90;;;11.22;100.00;95316.72;5053059;28;20040;-55
2023/03/14 08:42:26;;;;;;;0.63;0.28;;;11.80;99.90;;;11.18;93.93;95333.75;5054562;28;20041;-54
2023/03/14 08:44:52;;;;;;;0.80;0.38;;;11.70;99.90;;;11.15;99.21;95322.56;5056934;28;20938;-54
2023/03/14 08:47:19;;;;;;;0.82;0.30;;;11.70;99.90;;;11.19;97.69;95345.13;5053540;28;20481;-55
2023/03/14 08:49:45;;;;;;;0.82;0.50;;;11.70;99.90;;;11.24;96.35;95337.72;5049349;28;20036;-56
2023/03/14 08:52:11;;;;;;;1.77;0.40;;;11.70;99.90;;;11.41;95.30;95345.28;5050903;28;20142;-54
2023/03/14 08:54:36;;;;;;;0.63;0.38;;;11.90;99.90;;;11.30;91.11;95323.25;5053555;28;20033;-55
2023/03/14 08:57:02;;;;;;;0.85;0.30;;;12.00;99.90;;;11.56;93.39;95345.94;5058169;28;20021;-48
2023/03/14 08:59:28;;;;;;;0.90;0.28;;;12.10;99.90;;;11.69;92.27;95345.03;5058756;28;20071;-49
2023/03/14 09:01:54;;;;;;;3.17;0.30;;;12.30;99.90;;;11.97;88.76;95359.66;5054491;28;20047;-47
2023/03/14 09:04:20;;;;;;;1.17;0.40;;;12.60;99.90;;;12.11;87.75;95374.50;5052576;28;20036;-51
2023/03/14 09:06:46;;;;;;;1.08;0.40;;;12.70;99.90;;;12.22;83.85;95359.53;5053378;28;20040;-47
2023/03/14 09:09:13;;;;;;;0.17;0.17;;;12.80;99.90;;;12.27;88.96;95372.38;5055853;28;20028;-52
2023/03/14 09:11:39;;;;;;;1.30;0.43;;;12.90;99.90;;;12.37;88.05;95370.72;5058953;28;20032;-49
2023/03/14 09:14:05;;;;;;;1.30;0.35;;;13.00;99.90;;;12.46;87.28;95378.91;5053305;28;20233;-49
2023/03/14 09:16:31;;;;;;;1.33;0.35;;;13.10;99.90;;;12.53;88.26;95383.59;5047243;28;20032;-49
2023/03/14 09:18:59;;;;;;;0.57;0.22;;;13.20;99.90;;;12.60;86.23;95413.91;5057016;28;20020;-49
2023/03/14 09:21:27;;;;;;;1.58;0.30;;;13.30;99.90;;;12.66;86.13;95398.53;5053631;28;20029;-49
2023/03/14 09:23:53;;;;;;;1.23;0.30;;;13.30;99.90;;;12.68;85.93;95410.66;5047949;28;20060;-49
2023/03/14 09:26:20;;;;;;;0.75;0.22;;;13.40;99.90;;;12.68;87.59;95396.59;5051341;28;20052;-48
2023/03/14 09:28:45;;;;;;;0.47;0.30;;;13.40;99.90;;;12.78;91.56;95406.34;5055655;28;20032;-50
2023/03/14 09:31:12;;;;;;;3.10;0.45;;;13.50;99.90;;;12.96;85.77;95414.66;5056484;28;20044;-48
2023/03/14 09:33:38;;;;;;;2.00;0.40;;;13.70;99.90;;;13.04;84.15;95397.34;5053043;28;20178;-49
2023/03/14 09:36:05;;;;;;;0.25;0.13;;;13.80;99.90;;;13.15;84.16;95408.78;5054576;28;20203;-50
2023/03/14 09:38:32;;;;;;;0.50;0.30;;;13.80;99.90;;;13.30;85.42;95440.28;5053147;28;20521;-49
2023/03/14 09:41:01;;;;;;;1.65;0.30;;;14.00;99.90;;;13.09;86.19;95422.47;5054460;28;20048;-50
2023/03/14 09:43:31;;;;;;;0.47;0.20;;;13.90;99.90;;;12.79;82.96;95430.97;5049537;28;20036;-49
2023/03/14 09:46:00;;;;;;;2.35;0.20;;;13.70;99.90;;;12.91;84.68;95431.84;5045539;28;20093;-48
2023/03/14 09:48:32;;;;;;;0.88;0.30;;;13.60;99.90;;;13.02;83.76;95431.00;5045082;28;20037;-46
2023/03/14 09:51:02;;;;;;;1.08;0.38;;;13.70;99.90;;;13.01;83.16;95424.88;5053451;28;20512;-54
2023/03/14 09:53:42;;;;;;;1.58;0.20;;;13.70;99.90;;;12.88;85.18;95429.44;5050109;28;20078;-50
2023/03/14 09:56:32;;;;;;;0.95;0.32;;;13.60;99.90;;;12.69;86.88;95420.28;5051283;28;20071;-50
2023/03/14 09:59:04;;;;;;;0.80;0.40;;;13.40;99.90;;;12.82;85.57;95406.13;5053442;28;20049;-51
2023/03/14 10:01:32;;;;;;;0.57;0.40;;;13.40;99.90;;;12.66;85.72;95411.75;5052801;28;20410;-48
2023/03/14 10:04:13;;;;;;;1.55;0.30;;;13.30;99.90;;;12.39;90.16;95402.31;5051264;28;20066;-50
2023/03/14 10:06:38;;;;;;;0.57;0.40;;;13.10;99.90;;;12.34;88.91;95400.00;5051867;28;20067;-50
2023/03/14 10:09:05;;;;;;;3.13;0.38;;;12.90;99.90;;;12.08;90.15;95401.13;5055848;28;21177;-50
2023/03/14 10:11:31;;;;;;;1.00;0.10;;;12.70;99.90;;;11.89;90.54;95384.00;5055457;28;20043;-50
2023/03/14 10:14:19;;;;;;;0.40;0.35;;;12.50;99.90;;;11.82;93.78;95388.03;5053187;28;20024;-50
2023/03/14 10:16:46;;;;;;;0.88;0.35;;;12.40;99.90;;;11.77;91.16;95384.88;5049081;28;20496;-50
2023/03/14 10:19:14;;;;;;;0.10;0.10;;;12.30;99.90;;;11.72;90.88;95382.59;5053047;28;20290;-51
2023/03/14 10:21:50;;;;;;;1.63;0.32;;;12.30;99.90;;;11.78;93.62;95386.59;5048294;28;20032;-50
2023/03/14 10:24:24;;;;;;;0.60;0.20;;;12.20;99.90;;;11.81;92.14;95381.09;5046782;28;20499;-50
2023/03/14 10:27:06;;;;;;;0.52;0.30;;;12.30;99.90;;;12.07;88.24;95380.97;5040303;28;20112;-50